首页
METAR-TAF:

METAR-TAF

机场 :

卡里布, 缅因州, 美国

纬度: 46-52-02N, 经度: 068-00-48W, 海拔: 191米

当前天气观测

该预报发布于23分钟前的16:54 UTC
风速7节,风向西转西北,有时为19节阵风
温度 21°C
湿度 43%
气压 1013 hPa
能見度: 16.1公里
散云层高于5000英尺

METAR: KCAR 211654Z AUTO 29007G19KT 10SM SCT050 21/08 A2991 RMK AO2 SLP129 T02110083 $

时间: 13:17 (17:17 UTC)

预报

该预报发布于5小时和57分钟前的11:20 UTC
预报有效从21日的 12点(UTC)到 22日的 12点(UTC)
风速5节,风向西北
能見度: 10公里
天空无云
从 21日的 1600点(UTC)
风速10节,风向西,有时为19节阵风
能見度: 10公里
少量云层高于10000英尺
从 21日的 2300点(UTC)
风速6节,风向西转西北
能見度: 10公里
少量云层高于6000英尺

TAF: KCAR 211120Z 2112/2212 31005KT P6SM SKC FM211600 28010G19KT P6SM FEW100 FM212300 30006KT P6SM FEW060

超过4000个机场的气象观测和天气预报(METAR&TAF报告)。

可查询的气象台以黄色和红色小点在地图上表示。

将鼠标移到小点上方,可查看气象台名称。

然后点击查看天气观测和预报。

如需切换地图:点击带黑十字的绿色按钮放大地图;点击带横线的绿色按钮缩小地图;或者点击绿色箭头查看邻近地区的地图。


METAR-TAF: